Time;durP1;ratioP1;P1;durP2;ratioP2;P2;SDS_P1;SDS_P2;PMS_P1;PMS_P2;Temp;Humidity;BMP_temperature;BMP_pressure;BME280_temperature;BME280_humidity;BME280_pressure;Samples;Min_cycle;Max_cycle;Signal;HPM_P1;HPM_P2
2022/08/19 00:00:25;;;;;;;21.33;13.95;;;;;;;22.20;100.00;99687.63;4897009;29;20133;-70
2022/08/19 00:02:51;;;;;;;19.80;13.32;;;;;;;22.17;100.00;99691.44;4897064;29;20035;-70
2022/08/19 00:05:18;;;;;;;21.13;13.93;;;;;;;22.19;100.00;99686.75;4897408;29;20048;-70
2022/08/19 00:07:44;;;;;;;22.40;14.45;;;;;;;22.20;100.00;99682.19;4880245;29;20537;-70
2022/08/19 00:10:14;;;;;;;19.98;13.35;;;;;;;22.16;100.00;99687.00;4896763;29;20385;-70
2022/08/19 00:12:39;;;;;;;20.92;13.27;;;;;;;22.14;100.00;99671.91;4897107;29;20482;-70
2022/08/19 00:15:12;;;;;;;21.27;13.98;;;;;;;22.16;100.00;99688.84;4896973;29;20071;-70
2022/08/19 00:17:43;;;;;;;20.50;13.10;;;;;;;22.15;100.00;99674.47;4879965;29;20036;-70
2022/08/19 00:20:18;;;;;;;19.45;12.80;;;;;;;22.11;100.00;99673.00;4896842;29;20036;-70
2022/08/19 00:22:45;;;;;;;19.90;12.52;;;;;;;22.04;100.00;99654.69;4896661;29;20032;-70
2022/08/19 00:25:11;;;;;;;17.83;12.18;;;;;;;22.10;100.00;99674.00;4896787;29;20112;-70
2022/08/19 00:27:37;;;;;;;20.48;13.38;;;;;;;22.00;100.00;99677.59;4896809;29;20091;-70
2022/08/19 00:30:05;;;;;;;18.60;13.82;;;;;;;21.96;100.00;99679.72;4896570;29;20436;-71
2022/08/19 00:32:31;;;;;;;20.58;12.68;;;;;;;21.88;100.00;99665.09;4896720;29;20028;-70
2022/08/19 00:34:56;;;;;;;20.75;13.30;;;;;;;21.90;100.00;99679.38;4896297;29;20501;-70
2022/08/19 00:37:25;;;;;;;18.73;13.07;;;;;;;21.94;100.00;99683.56;4881244;29;20033;-71
2022/08/19 00:39:51;;;;;;;21.60;13.10;;;;;;;22.01;100.00;99676.59;4915432;29;20107;-70
2022/08/19 00:42:18;;;;;;;20.02;12.80;;;;;;;21.98;100.00;99663.31;4915586;29;20467;-70
2022/08/19 00:44:43;;;;;;;21.50;12.68;;;;;;;21.99;100.00;99662.34;4915387;29;20492;-70
2022/08/19 00:47:11;;;;;;;20.50;12.70;;;;;;;21.95;100.00;99650.06;4894845;29;20029;-70
2022/08/19 00:49:41;;;;;;;21.05;13.30;;;;;;;21.93;100.00;99647.47;4896120;29;20044;-70
2022/08/19 00:52:13;;;;;;;18.95;12.02;;;;;;;21.93;100.00;99652.91;4894984;29;20032;-70
2022/08/19 00:54:40;;;;;;;21.20;13.65;;;;;;;21.88;100.00;99644.28;4896293;29;20055;-70
2022/08/19 00:57:08;;;;;;;19.77;12.80;;;;;;;21.79;100.00;99649.63;4896273;29;20053;-70
2022/08/19 00:59:38;;;;;;;23.45;12.82;;;;;;;21.74;100.00;99668.94;4895887;29;20080;-69
2022/08/19 01:02:04;;;;;;;19.73;12.35;;;;;;;21.73;100.00;99671.78;4896737;29;20064;-70
2022/08/19 01:04:29;;;;;;;21.05;13.00;;;;;;;21.74;100.00;99681.63;4895151;29;20107;-70
2022/08/19 01:06:56;;;;;;;19.65;12.40;;;;;;;21.61;100.00;99673.66;4879231;29;20444;-70
2022/08/19 01:09:21;;;;;;;21.13;13.48;;;;;;;21.60;100.00;99685.47;4895912;29;20031;-71
2022/08/19 01:11:47;;;;;;;21.50;13.23;;;;;;;21.55;100.00;99690.41;4896237;29;20028;-70
2022/08/19 01:14:14;;;;;;;21.10;13.43;;;;;;;21.60;100.00;99692.72;4896216;29;20024;-70
2022/08/19 01:16:40;;;;;;;21.90;13.43;;;;;;;21.58;100.00;99684.72;4896346;29;20031;-70
2022/08/19 01:19:24;;;;;;;24.13;14.43;;;;;;;21.56;100.00;99683.16;4896070;29;20179;-70
2022/08/19 01:22:00;;;;;;;22.27;13.23;;;;;;;21.52;100.00;99674.41;4896492;29;20029;-70
2022/08/19 01:24:26;;;;;;;20.52;13.20;;;;;;;21.51;100.00;99679.97;4896229;29;20104;-70
2022/08/19 01:26:52;;;;;;;20.60;13.38;;;;;;;21.49;100.00;99679.22;4896362;29;20120;-70
2022/08/19 01:29:17;;;;;;;23.60;13.50;;;;;;;21.52;100.00;99689.78;4896031;29;20028;-70
2022/08/19 01:31:43;;;;;;;23.13;13.90;;;;;;;21.53;100.00;99689.66;4896221;29;20797;-70
2022/08/19 01:34:10;;;;;;;22.00;14.20;;;;;;;21.49;100.00;99684.63;4896420;29;20119;-70
2022/08/19 01:36:41;;;;;;;20.75;13.20;;;;;;;21.51;100.00;99693.50;4901417;29;20114;-70
2022/08/19 01:39:10;;;;;;;22.02;13.32;;;;;;;21.49;100.00;99685.50;4899709;29;20096;-71
2022/08/19 01:41:36;;;;;;;25.20;13.35;;;;;;;21.52;100.00;99693.38;4899820;29;20492;-70
2022/08/19 01:44:03;;;;;;;20.80;12.90;;;;;;;21.53;100.00;99691.53;4899357;29;20065;-71
2022/08/19 01:46:29;;;;;;;22.92;14.10;;;;;;;21.50;100.00;99680.97;4899662;29;20056;-71
2022/08/19 01:48:55;;;;;;;20.63;13.40;;;;;;;21.52;100.00;99682.53;4901758;29;20028;-70
2022/08/19 01:51:20;;;;;;;21.02;13.02;;;;;;;21.53;100.00;99681.53;4882423;29;20031;-70
2022/08/19 01:53:50;;;;;;;19.17;12.70;;;;;;;21.60;100.00;99679.19;4899539;29;20049;-70
2022/08/19 01:56:17;;;;;;;22.45;13.80;;;;;;;21.64;100.00;99681.53;4899147;29;20370;-70
2022/08/19 01:58:53;;;;;;;23.63;13.85;;;;;;;21.66;100.00;99681.41;4899384;29;20371;-70
2022/08/19 02:01:19;;;;;;;20.23;12.43;;;;;;;21.65;100.00;99682.38;4899064;29;20404;-71
2022/08/19 02:03:45;;;;;;;20.98;12.85;;;;;;;21.67;100.00;99678.56;4899309;29;20107;-71
2022/08/19 02:06:11;;;;;;;22.98;13.27;;;;;;;21.68;100.00;99677.56;4882372;29;20031;-71
2022/08/19 02:08:39;;;;;;;23.58;13.70;;;;;;;21.71;100.00;99681.88;4899285;29;20111;-70
2022/08/19 02:11:06;;;;;;;19.77;12.07;;;;;;;21.64;100.00;99678.81;4898837;29;20028;-70
2022/08/19 02:13:33;;;;;;;22.95;13.52;;;;;;;21.65;100.00;99679.66;4882270;29;20036;-70
2022/08/19 02:15:59;;;;;;;20.20;12.88;;;;;;;21.69;100.00;99683.84;4898975;29;20445;-71
2022/08/19 02:18:24;;;;;;;21.63;13.82;;;;;;;21.63;100.00;99668.13;4899016;29;20032;-70
2022/08/19 02:20:49;;;;;;;21.85;13.95;;;;;;;21.68;100.00;99680.28;4898984;29;20021;-70
2022/08/19 02:23:16;;;;;;;20.70;12.10;;;;;;;21.66;100.00;99676.00;4899024;29;20366;-70
2022/08/19 02:25:47;;;;;;;20.90;13.43;;;;;;;21.59;100.00;99656.69;4898675;29;20532;-71
2022/08/19 02:28:13;;;;;;;21.60;13.07;;;;;;;21.59;100.00;99658.53;4898968;29;20109;-71
2022/08/19 02:30:41;;;;;;;20.20;13.32;;;;;;;21.58;100.00;99667.66;4898696;29;20109;-71
2022/08/19 02:33:06;;;;;;;19.98;12.45;;;;;;;21.62;100.00;99674.50;4881754;29;20044;-71
2022/08/19 02:35:32;;;;;;;20.92;12.15;;;;;;;21.54;100.00;99666.16;4898381;29;20028;-70
2022/08/19 02:40:50;;;;;;;22.65;12.43;;;;;;;21.60;100.00;99668.34;4898626;29;20528;-71
2022/08/19 02:43:15;;;;;;;22.77;12.38;;;;;;;21.58;100.00;99662.22;4910451;29;20129;-71
2022/08/19 02:45:41;;;;;;;19.10;12.25;;;;;;;21.53;100.00;99659.88;4912056;29;20060;-71
2022/08/19 02:48:08;;;;;;;19.58;12.27;;;;;;;21.56;100.00;99665.06;4897644;29;20040;-71
2022/08/19 02:50:38;;;;;;;20.65;13.00;;;;;;;21.53;100.00;99669.88;4898289;29;20112;-71
2022/08/19 02:53:03;;;;;;;23.02;13.82;;;;;;;21.48;100.00;99658.56;4898494;29;20034;-71
2022/08/19 02:55:29;;;;;;;23.05;13.27;;;;;;;21.52;100.00;99669.00;4898388;29;20392;-72
2022/08/19 02:57:54;;;;;;;21.65;13.40;;;;;;;21.48;100.00;99664.81;4898433;29;20446;-71
2022/08/19 03:00:19;;;;;;;22.65;13.02;;;;;;;21.49;100.00;99660.28;4898079;29;20045;-71
2022/08/19 03:02:46;;;;;;;20.92;13.02;;;;;;;21.62;100.00;99685.34;4882003;29;20025;-71
2022/08/19 03:05:12;;;;;;;24.35;13.20;;;;;;;21.64;100.00;99680.66;4881046;29;20040;-71
2022/08/19 03:07:37;;;;;;;21.00;12.88;;;;;;;21.64;100.00;99677.97;4898232;29;20040;-71
2022/08/19 03:10:04;;;;;;;20.15;12.80;;;;;;;21.66;100.00;99679.53;4897937;29;20072;-70
2022/08/19 03:12:29;;;;;;;21.67;11.77;;;;;;;21.66;100.00;99681.41;4898098;29;20025;-70
2022/08/19 03:14:55;;;;;;;20.95;13.00;;;;;;;21.65;100.00;99679.66;4898079;29;20461;-70
2022/08/19 03:17:20;;;;;;;22.80;12.52;;;;;;;21.62;100.00;99682.63;4897917;29;20048;-70
2022/08/19 03:19:46;;;;;;;20.60;12.63;;;;;;;21.62;100.00;99688.03;4897918;29;20698;-70
2022/08/19 03:22:11;;;;;;;20.88;11.93;;;;;;;21.57;100.00;99687.56;4897837;29;20033;-70
2022/08/19 03:24:37;;;;;;;27.23;13.40;;;;;;;21.53;100.00;99686.94;4897865;29;20033;-71
2022/08/19 03:27:04;;;;;;;21.38;13.10;;;;;;;21.52;100.00;99682.53;4897756;29;20111;-70
2022/08/19 03:29:31;;;;;;;22.40;12.57;;;;;;;21.54;100.00;99687.81;4880826;29;20156;-70
2022/08/19 03:32:00;;;;;;;21.67;12.30;;;;;;;21.50;100.00;99697.19;4897317;29;20036;-70
2022/08/19 03:34:28;;;;;;;22.88;12.63;;;;;;;21.52;100.00;99695.19;4898841;29;20031;-70
2022/08/19 03:37:00;;;;;;;18.73;11.35;;;;;;;21.55;100.00;99700.34;4879793;29;20029;-71
2022/08/19 03:39:26;;;;;;;19.63;11.70;;;;;;;21.51;100.00;99699.78;4897208;29;20569;-71
2022/08/19 03:41:56;;;;;;;20.92;12.80;;;;;;;21.50;100.00;99689.09;4897133;29;20172;-70
2022/08/19 03:44:23;;;;;;;22.27;12.02;;;;;;;21.52;100.00;99701.50;4897159;29;20087;-70
2022/08/19 03:46:59;;;;;;;23.80;13.32;;;;;;;21.52;100.00;99706.91;4896857;29;20381;-70
2022/08/19 03:49:28;;;;;;;21.52;12.90;;;;;;;21.55;100.00;99705.78;4900030;29;20393;-70
2022/08/19 03:51:56;;;;;;;19.80;12.52;;;;;;;21.58;100.00;99705.53;4880408;29;20035;-71
2022/08/19 03:54:23;;;;;;;19.13;12.48;;;;;;;21.59;100.00;99709.97;4880701;29;20108;-71
2022/08/19 03:56:51;;;;;;;20.08;11.45;;;;;;;21.58;100.00;99710.97;4897195;29;20045;-70
2022/08/19 03:59:25;;;;;;;20.77;11.77;;;;;;;21.57;100.00;99703.81;4879941;29;20048;-70
2022/08/19 04:01:56;;;;;;;21.63;11.13;;;;;;;21.59;100.00;99710.84;4897196;29;20177;-69
2022/08/19 04:04:22;;;;;;;20.23;11.80;;;;;;;21.56;100.00;99712.94;4897220;29;20028;-69
2022/08/19 04:06:47;;;;;;;17.55;11.27;;;;;;;21.54;100.00;99712.19;4880207;29;20040;-69
2022/08/19 04:09:13;;;;;;;19.95;11.13;;;;;;;21.50;100.00;99708.88;4880263;29;20467;-69
2022/08/19 04:11:41;;;;;;;20.17;11.40;;;;;;;21.59;100.00;99718.09;4896811;29;20047;-69
2022/08/19 04:14:09;;;;;;;23.83;12.85;;;;;;;21.58;100.00;99716.38;4896839;29;20028;-70
2022/08/19 04:16:34;;;;;;;21.02;12.07;;;;;;;21.58;100.00;99719.09;4896929;29;20352;-70
2022/08/19 04:19:03;;;;;;;18.88;11.30;;;;;;;21.56;100.00;99713.78;4897044;29;20025;-70
2022/08/19 04:21:28;;;;;;;21.20;12.82;;;;;;;21.48;100.00;99700.00;4896756;29;20032;-70
2022/08/19 04:23:55;;;;;;;19.23;11.75;;;;;;;21.48;100.00;99704.56;4879885;29;20036;-70
2022/08/19 04:26:24;;;;;;;19.45;12.63;;;;;;;21.43;100.00;99686.00;4896679;29;20042;-70
2022/08/19 04:28:51;;;;;;;19.73;11.93;;;;;;;21.50;100.00;99699.91;4896432;29;20043;-70
2022/08/19 04:31:25;;;;;;;18.85;11.50;;;;;;;21.53;100.00;99702.34;4879662;29;20183;-70
2022/08/19 04:33:57;;;;;;;22.92;12.10;;;;;;;21.54;100.00;99707.63;4896766;29;20033;-70
2022/08/19 04:36:26;;;;;;;20.77;12.45;;;;;;;21.51;100.00;99710.59;4896614;29;20145;-70
2022/08/19 04:38:55;;;;;;;21.73;11.23;;;;;;;21.48;100.00;99710.00;4896620;29;20131;-70
2022/08/19 04:44:05;;;;;;;24.58;13.60;;;;;;;21.50;100.00;99713.44;4898686;29;20457;-70
2022/08/19 04:46:31;;;;;;;20.38;12.25;;;;;;;21.45;100.00;99705.66;4896379;29;20028;-70
2022/08/19 04:48:58;;;;;;;22.45;13.02;;;;;;;21.52;100.00;99719.56;4896565;29;20056;-70
2022/08/19 04:51:23;;;;;;;20.88;12.48;;;;;;;21.54;100.00;99714.88;4896334;29;20374;-70
2022/08/19 04:53:50;;;;;;;20.63;11.65;;;;;;;21.53;100.00;99724.84;4896534;29;20039;-70
2022/08/19 04:56:17;;;;;;;20.10;12.40;;;;;;;21.57;100.00;99725.47;4896449;29;20028;-70
2022/08/19 04:58:45;;;;;;;20.27;12.70;;;;;;;21.54;100.00;99737.41;4895250;29;20029;-70
2022/08/19 05:01:18;;;;;;;20.85;12.25;;;;;;;21.61;100.00;99737.78;4896218;29;20080;-70
2022/08/19 05:03:43;;;;;;;20.52;12.65;;;;;;;21.59;100.00;99740.59;4896433;29;20040;-70
2022/08/19 05:06:12;;;;;;;18.63;12.00;;;;;;;21.55;100.00;99733.72;4896184;29;20513;-70
2022/08/19 05:08:42;;;;;;;21.52;12.57;;;;;;;21.66;100.00;99752.63;4896433;29;20060;-70
2022/08/19 05:11:17;;;;;;;19.92;12.35;;;;;;;21.68;100.00;99752.53;4898037;29;20032;-70
2022/08/19 05:13:44;;;;;;;24.90;12.25;;;;;;;21.72;100.00;99754.84;4899200;29;20040;-70
2022/08/19 05:16:11;;;;;;;23.83;12.80;;;;;;;21.77;100.00;99754.50;4899101;29;20025;-70
2022/08/19 05:24:09;;;;;;;20.42;12.80;;;;;;;21.78;100.00;99764.34;4899321;29;20061;-70
2022/08/19 05:26:36;;;;;;;23.05;13.52;;;;;;;21.85;100.00;99773.69;4899758;29;20112;-70
2022/08/19 05:29:03;;;;;;;21.55;12.60;;;;;;;21.89;100.00;99786.00;4881855;29;20504;-70
2022/08/19 05:31:29;;;;;;;19.80;12.52;;;;;;;21.86;100.00;99775.41;4899236;29;20104;-70
2022/08/19 05:33:55;;;;;;;19.90;11.85;;;;;;;21.93;100.00;99779.31;4899027;29;20043;-70
2022/08/19 05:36:21;;;;;;;19.42;11.75;;;;;;;21.97;100.00;99794.34;4901732;29;20020;-70
2022/08/19 05:38:47;;;;;;;19.50;11.63;;;;;;;21.98;100.00;99790.63;4899203;29;20087;-70
2022/08/19 05:41:14;;;;;;;19.08;12.07;;;;;;;22.02;100.00;99787.56;4899177;29;20088;-70
2022/08/19 05:43:39;;;;;;;23.33;12.27;;;;;;;22.06;100.00;99790.84;4898868;29;20413;-70
2022/08/19 05:46:07;;;;;;;19.40;12.35;;;;;;;22.07;100.00;99792.59;4905595;29;20029;-70
2022/08/19 05:48:34;;;;;;;19.02;12.02;;;;;;;22.03;100.00;99789.28;4881871;29;20036;-71
2022/08/19 05:51:07;;;;;;;19.80;11.82;;;;;;;22.13;100.00;99789.38;4884731;29;20036;-71
2022/08/19 05:53:34;;;;;;;22.23;12.10;;;;;;;22.13;100.00;99786.66;4880264;29;20119;-71
2022/08/19 05:56:17;;;;;;;22.42;13.32;;;;;;;22.13;100.00;99789.38;4890209;29;20035;-71
2022/08/19 05:58:44;;;;;;;20.10;12.68;;;;;;;22.11;100.00;99785.91;4898796;29;20606;-71
2022/08/19 06:01:12;;;;;;;22.67;13.05;;;;;;;22.14;100.00;99793.81;4881535;29;20143;-71
2022/08/19 06:03:39;;;;;;;21.42;12.07;;;;;;;22.15;100.00;99793.69;4897532;29;20028;-71
2022/08/19 06:06:07;;;;;;;23.08;13.48;;;;;;;22.14;100.00;99788.41;4897948;29;20115;-71
2022/08/19 06:08:36;;;;;;;23.10;13.45;;;;;;;22.13;100.00;99789.38;4881674;29;20104;-71
2022/08/19 06:11:24;;;;;;;23.63;13.23;;;;;;;22.09;100.00;99790.63;4898610;29;20052;-71
2022/08/19 06:13:52;;;;;;;17.83;11.88;;;;;;;22.15;100.00;99795.53;4898430;29;20040;-71
2022/08/19 06:16:24;;;;;;;20.30;13.23;;;;;;;22.15;100.00;99781.97;4898274;29;20044;-71
2022/08/19 06:18:51;;;;;;;20.20;12.67;;;;;;;22.28;100.00;99792.63;4898018;29;20068;-71
2022/08/19 06:21:24;;;;;;;21.95;13.20;;;;;;;22.34;100.00;99792.97;4897706;29;20047;-71
2022/08/19 06:23:51;;;;;;;19.25;12.68;;;;;;;22.39;100.00;99798.03;4880893;29;20047;-71
2022/08/19 06:26:18;;;;;;;22.58;13.65;;;;;;;22.35;100.00;99807.41;4897908;29;20052;-71
2022/08/19 06:28:46;;;;;;;21.05;13.25;;;;;;;22.41;100.00;99805.03;4897314;29;20111;-71
2022/08/19 06:31:25;;;;;;;26.83;14.00;;;;;;;22.48;100.00;99822.50;4897380;29;20398;-71
2022/08/19 06:33:51;;;;;;;21.70;13.88;;;;;;;22.40;100.00;99807.88;4897257;29;20103;-71
2022/08/19 06:36:21;;;;;;;22.55;13.95;;;;;;;22.50;100.00;99831.38;4897036;29;20115;-71
2022/08/19 06:38:47;;;;;;;22.00;13.07;;;;;;;22.56;100.00;99828.19;4880066;29;20036;-71
2022/08/19 06:41:12;;;;;;;19.83;12.35;;;;;;;22.59;100.00;99838.75;4897292;29;20024;-71
2022/08/19 06:43:38;;;;;;;23.13;14.43;;;;;;;22.59;100.00;99836.03;4880639;29;20032;-71
2022/08/19 06:46:03;;;;;;;23.55;13.82;;;;;;;22.56;100.00;99822.75;4897263;29;20085;-71
2022/08/19 06:48:30;;;;;;;21.42;14.05;;;;;;;22.65;95.42;99835.50;4891764;29;20071;-71
2022/08/19 06:50:55;;;;;;;20.20;13.57;;;;;;;22.72;93.22;99834.00;4897972;29;20319;-71
2022/08/19 06:53:21;;;;;;;20.08;13.13;;;;;;;22.78;92.74;99830.78;4897652;29;20047;-71
2022/08/19 06:55:47;;;;;;;21.83;13.80;;;;;;;22.95;92.87;99835.59;4897662;29;20032;-71
2022/08/19 06:58:12;;;;;;;21.50;13.75;;;;;;;23.00;91.27;99822.50;4897480;29;20031;-71
2022/08/19 07:00:38;;;;;;;21.38;13.85;;;;;;;23.14;90.56;99833.03;4897559;29;20394;-71
2022/08/19 07:03:03;;;;;;;19.98;14.07;;;;;;;23.26;89.87;99823.84;4897539;29;20045;-71
2022/08/19 07:05:28;;;;;;;24.60;14.88;;;;;;;23.41;89.04;99837.91;4880708;29;20036;-71
2022/08/19 07:07:54;;;;;;;21.85;13.27;;;;;;;23.47;89.09;99817.53;4897067;29;20389;-71
2022/08/19 07:10:19;;;;;;;21.58;13.45;;;;;;;23.57;89.11;99823.84;4891556;29;20035;-71
2022/08/19 07:12:46;;;;;;;24.40;14.52;;;;;;;23.73;88.49;99826.91;4878660;29;20390;-72
2022/08/19 07:15:12;;;;;;;23.83;13.25;;;;;;;23.85;87.59;99836.69;4894767;29;20027;-72
2022/08/19 07:17:38;;;;;;;23.40;13.68;;;;;;;23.80;87.36;99819.94;4897298;29;20044;-72
2022/08/19 07:20:07;;;;;;;24.67;14.98;;;;;;;23.88;86.76;99833.69;4890435;29;20028;-71
2022/08/19 07:22:33;;;;;;;22.92;14.88;;;;;;;23.82;86.87;99824.22;4881418;29;20025;-71
2022/08/19 07:25:00;;;;;;;19.80;12.50;;;;;;;23.94;87.05;99833.13;4861813;29;20044;-71
2022/08/19 07:27:25;;;;;;;40.15;15.02;;;;;;;23.93;86.93;99826.00;4878668;29;20029;-70
2022/08/19 07:29:53;;;;;;;22.05;14.38;;;;;;;23.98;87.18;99829.19;4876892;29;20060;-71
2022/08/19 07:32:18;;;;;;;21.13;13.73;;;;;;;23.93;85.74;99813.28;4886568;29;20517;-72
2022/08/19 07:34:45;;;;;;;23.80;13.50;;;;;;;23.97;85.02;99820.13;4894569;29;20056;-72
2022/08/19 07:37:11;;;;;;;21.48;12.68;;;;;;;24.08;85.10;99830.94;4896638;29;20032;-72
2022/08/19 07:39:37;;;;;;;18.75;12.65;;;;;;;24.18;83.80;99829.09;4896939;29;20105;-72
2022/08/19 07:42:07;;;;;;;20.92;13.05;;;;;;;24.22;83.34;99811.50;4887147;29;20025;-72
2022/08/19 07:44:33;;;;;;;21.92;13.00;;;;;;;24.38;82.35;99828.09;4898668;29;20059;-72
2022/08/19 07:47:00;;;;;;;26.08;13.18;;;;;;;24.43;82.15;99825.00;4892873;29;20489;-72
2022/08/19 07:49:26;;;;;;;18.15;11.90;;;;;;;24.50;82.10;99826.13;4889278;29;20029;-72
2022/08/19 07:51:58;;;;;;;20.65;13.60;;;;;;;24.54;81.56;99831.16;4877399;29;20439;-72
2022/08/19 07:54:26;;;;;;;19.50;12.47;;;;;;;24.53;81.16;99831.25;4878009;29;20036;-72
2022/08/19 07:56:52;;;;;;;19.10;12.20;;;;;;;24.57;81.44;99830.00;4878176;29;20296;-72
2022/08/19 07:59:20;;;;;;;20.50;12.05;;;;;;;24.52;81.53;99819.56;4877932;29;20037;-72
2022/08/19 08:01:46;;;;;;;18.50;12.43;;;;;;;24.70;80.84;99838.75;4891167;29;20413;-72
2022/08/19 08:09:43;;;;;;;18.40;11.07;;;;;;;25.29;75.47;99822.19;4896455;29;20508;-72
2022/08/19 08:12:15;;;;;;;17.25;11.27;;;;;;;25.54;75.23;99821.56;4896388;29;20032;-72
2022/08/19 08:14:47;;;;;;;19.38;11.20;;;;;;;25.80;73.02;99831.66;4896344;29;20043;-72
2022/08/19 08:17:16;;;;;;;15.93;10.50;;;;;;;25.75;73.11;99831.25;4896801;29;20037;-71
2022/08/19 08:19:43;;;;;;;18.52;11.65;;;;;;;25.82;73.18;99835.09;4896503;29;20040;-71
2022/08/19 08:23:21;;;;;;;15.15;11.05;;;;;;;25.85;73.43;99832.06;4896370;29;20123;-71
2022/08/19 08:24:58;;;;;;;14.95;10.45;;;;;;;25.93;73.18;99815.81;4896158;29;20043;-71
2022/08/19 08:27:24;;;;;;;18.63;11.63;;;;;;;25.94;72.82;99814.81;4896254;29;20028;-71
2022/08/19 08:29:49;;;;;;;14.77;10.23;;;;;;;26.10;71.27;99821.47;4896007;29;20033;-71
2022/08/19 08:32:14;;;;;;;15.70;9.98;;;;;;;26.26;71.42;99827.97;4896279;29;20028;-71
2022/08/19 08:34:40;;;;;;;15.02;10.23;;;;;;;26.23;71.40;99825.56;4879407;29;20037;-71
2022/08/19 08:37:05;;;;;;;17.15;10.60;;;;;;;26.27;71.61;99826.13;4896227;29;20031;-72
2022/08/19 08:39:31;;;;;;;16.23;11.25;;;;;;;26.39;71.29;99836.63;4895807;29;20112;-71
2022/08/19 08:42:07;;;;;;;16.42;11.57;;;;;;;26.61;70.51;99838.06;4894700;29;20032;-72
2022/08/19 08:44:59;;;;;;;15.43;10.48;;;;;;;26.77;70.22;99844.56;4894875;29;20116;-71
2022/08/19 08:47:30;;;;;;;16.52;11.18;;;;;;;26.90;68.93;99841.47;4892237;29;20047;-71
2022/08/19 08:50:15;;;;;;;13.88;10.13;;;;;;;26.87;68.63;99849.97;4894687;29;20140;-71
2022/08/19 08:52:45;;;;;;;18.85;11.00;;;;;;;26.79;68.84;99852.59;4894952;29;20517;-71
2022/08/19 08:55:21;;;;;;;15.98;10.35;;;;;;;26.81;68.92;99854.16;4878003;29;20024;-71
2022/08/19 08:57:47;;;;;;;13.55;10.27;;;;;;;26.93;68.53;99849.31;4895787;29;20036;-71
2022/08/19 09:00:20;;;;;;;14.05;9.40;;;;;;;27.16;68.15;99847.81;4895728;29;20056;-71
2022/08/19 09:02:46;;;;;;;14.13;8.68;;;;;;;27.14;67.18;99837.03;4895839;29;20037;-71
2022/08/19 09:05:13;;;;;;;13.20;9.38;;;;;;;27.10;66.35;99840.22;4895826;29;20029;-71
2022/08/19 09:08:04;;;;;;;12.07;8.88;;;;;;;27.26;67.72;99843.13;4895851;29;20694;-71
2022/08/19 09:10:51;;;;;;;14.40;9.43;;;;;;;27.27;67.60;99852.13;4895783;29;20031;-71
2022/08/19 09:13:22;;;;;;;13.50;8.93;;;;;;;27.32;67.67;99856.16;4895690;29;20032;-71
2022/08/19 09:15:57;;;;;;;13.75;8.93;;;;;;;27.38;65.83;99854.66;4886925;29;20417;-71
2022/08/19 09:18:22;;;;;;;13.38;8.75;;;;;;;27.38;64.08;99858.22;4877042;29;20037;-71
2022/08/19 09:20:48;;;;;;;12.60;8.95;;;;;;;27.54;65.35;99861.09;4890236;29;20025;-71
2022/08/19 09:23:14;;;;;;;12.70;8.43;;;;;;;27.81;64.73;99855.44;4881870;29;20029;-71
2022/08/19 09:25:39;;;;;;;12.95;9.27;;;;;;;28.02;64.06;99860.53;4876768;29;20575;-72
2022/08/19 09:28:06;;;;;;;11.70;8.38;;;;;;;27.92;61.77;99866.13;4877236;29;20040;-72
2022/08/19 09:30:38;;;;;;;12.65;8.82;;;;;;;27.99;63.17;99856.22;4876992;29;20033;-72
2022/08/19 09:33:04;;;;;;;11.43;7.50;;;;;;;28.20;62.92;99842.16;4892393;29;20020;-72
2022/08/19 09:35:30;;;;;;;10.98;7.53;;;;;;;28.55;60.62;99852.03;4895575;29;20043;-72
2022/08/19 09:37:57;;;;;;;11.20;7.80;;;;;;;28.91;58.82;99858.91;4895702;29;20024;-72
2022/08/19 09:40:23;;;;;;;11.02;7.03;;;;;;;29.30;57.67;99859.97;4895410;29;20033;-72
2022/08/19 09:42:49;;;;;;;12.75;7.22;;;;;;;29.81;55.36;99854.06;4864186;29;20029;-72
2022/08/19 09:45:17;;;;;;;12.30;6.50;;;;;;;30.36;53.99;99854.88;4897277;29;20363;-72
2022/08/19 09:47:43;;;;;;;9.38;6.30;;;;;;;31.05;53.63;99861.34;4895622;29;20028;-71
2022/08/19 09:50:11;;;;;;;8.65;6.22;;;;;;;31.77;50.84;99860.66;4878352;29;20035;-72
2022/08/19 09:52:37;;;;;;;9.57;6.60;;;;;;;32.28;48.67;99845.09;4894764;29;20028;-72
2022/08/19 09:55:07;;;;;;;7.97;6.03;;;;;;;32.99;46.93;99865.31;4895037;29;20039;-70
2022/08/19 09:57:33;;;;;;;9.25;6.38;;;;;;;33.49;44.30;99868.97;4898229;29;20105;-72
2022/08/19 09:59:59;;;;;;;7.72;5.07;;;;;;;33.53;43.25;99870.25;4882379;29;20056;-73
2022/08/19 10:02:24;;;;;;;7.63;5.57;;;;;;;33.48;43.01;99861.75;4900772;29;20024;-73
2022/08/19 10:07:35;;;;;;;9.70;5.15;;;;;;;33.43;41.55;99864.25;4899054;29;20043;-73
2022/08/19 10:10:00;;;;;;;11.40;6.05;;;;;;;33.24;43.16;99871.25;4898603;29;20453;-73
2022/08/19 10:12:26;;;;;;;8.25;5.57;;;;;;;33.22;43.37;99871.47;4898612;29;20036;-73
2022/08/19 10:14:53;;;;;;;8.88;5.38;;;;;;;33.48;43.56;99875.53;4898238;29;20028;-73
2022/08/19 10:17:18;;;;;;;8.05;5.75;;;;;;;33.61;44.55;99875.66;4897831;29;20351;-72
2022/08/19 10:19:44;;;;;;;11.93;6.05;;;;;;;33.38;41.71;99873.06;4897782;29;20028;-73
2022/08/19 10:22:14;;;;;;;9.32;6.28;;;;;;;33.42;42.99;99862.53;4882154;29;20040;-73
2022/08/19 10:24:40;;;;;;;7.30;5.68;;;;;;;33.87;43.64;99864.78;4879160;29;20031;-72
2022/08/19 10:27:06;;;;;;;9.43;5.85;;;;;;;34.34;43.15;99868.47;4862355;29;20029;-74
2022/08/19 10:29:34;;;;;;;7.20;5.30;;;;;;;34.67;42.77;99865.88;4862240;29;20093;-74
2022/08/19 10:32:08;;;;;;;7.45;5.60;;;;;;;34.91;42.11;99870.84;4886176;29;20068;-75
2022/08/19 10:34:35;;;;;;;8.98;6.30;;;;;;;34.52;41.06;99870.69;4877198;29;20120;-74
2022/08/19 10:37:02;;;;;;;8.35;6.15;;;;;;;34.28;41.96;99868.44;4867556;29;20041;-73
2022/08/19 10:39:33;;;;;;;8.68;5.80;;;;;;;34.12;42.31;99866.03;4879375;29;20069;-73
2022/08/19 10:41:59;;;;;;;9.13;6.40;;;;;;;33.58;42.90;99862.22;4879054;29;20033;-73
2022/08/19 10:44:25;;;;;;;11.20;6.40;;;;;;;33.07;44.03;99864.31;4879192;29;20096;-72
2022/08/19 10:46:51;;;;;;;9.05;6.10;;;;;;;32.33;46.57;99838.00;4892409;29;20077;-72
2022/08/19 10:49:18;;;;;;;10.20;6.53;;;;;;;31.94;45.51;99848.47;4889715;29;20028;-71
2022/08/19 10:57:17;;;;;;;7.35;5.72;;;;;;;31.36;48.52;99851.13;4887616;29;20044;-71
2022/08/19 10:59:43;;;;;;;7.53;5.63;;;;;;;31.08;47.36;99845.34;4916561;29;21152;-72
2022/08/19 11:02:11;;;;;;;10.02;6.57;;;;;;;30.78;48.79;99846.25;4908325;29;20104;-71
2022/08/19 11:04:38;;;;;;;10.50;7.03;;;;;;;30.48;50.94;99842.47;4897793;29;20025;-71
2022/08/19 11:07:05;;;;;;;12.05;7.40;;;;;;;30.18;51.29;99851.50;4897075;29;20392;-71
2022/08/19 11:09:36;;;;;;;10.07;6.63;;;;;;;30.11;51.69;99833.22;4897289;29;20036;-71
2022/08/19 11:12:02;;;;;;;9.07;6.55;;;;;;;30.11;51.73;99833.22;4897453;29;20089;-71
2022/08/19 11:14:27;;;;;;;11.55;7.55;;;;;;;30.11;51.72;99823.09;4880722;29;20046;-71
2022/08/19 11:16:56;;;;;;;9.48;7.18;;;;;;;30.16;52.24;99826.16;4897580;29;20039;-71
2022/08/19 11:19:23;;;;;;;9.63;6.65;;;;;;;29.88;51.73;99827.66;4897201;29;20112;-72
2022/08/19 11:21:51;;;;;;;12.70;7.68;;;;;;;29.84;53.36;99826.28;4897568;29;20026;-70
2022/08/19 11:24:20;;;;;;;9.20;7.00;;;;;;;29.75;54.08;99821.88;4897456;29;20116;-70
2022/08/19 11:26:49;;;;;;;11.55;7.90;;;;;;;29.74;53.10;99817.41;4897272;29;20059;-71
2022/08/19 11:29:16;;;;;;;9.88;7.72;;;;;;;29.77;53.63;99814.31;4897397;29;20709;-70
2022/08/19 11:31:44;;;;;;;11.63;7.63;;;;;;;29.78;52.85;99821.53;4897100;29;20052;-70
2022/08/19 11:34:13;;;;;;;12.27;7.72;;;;;;;29.71;54.09;99815.03;4897355;29;20025;-72
2022/08/19 11:36:42;;;;;;;10.82;7.40;;;;;;;29.82;53.69;99811.88;4897043;29;20033;-72
2022/08/19 11:39:10;;;;;;;11.68;7.78;;;;;;;29.93;51.88;99819.75;4887424;29;20033;-72
2022/08/19 11:41:35;;;;;;;11.77;8.20;;;;;;;29.93;52.27;99802.44;4878414;29;20085;-72